createdAt,value
2023-01-15T00:01:37.237Z,4.50
2023-01-15T00:04:07.326Z,4.10
2023-01-15T00:06:44.365Z,4.00
2023-01-15T00:09:15.831Z,4.60
2023-01-15T00:11:44.114Z,2.20
2023-01-15T00:14:12.578Z,3.40
2023-01-15T00:16:40.825Z,5.80
2023-01-15T00:19:10.891Z,3.90
2023-01-15T00:21:39.059Z,2.40
2023-01-15T00:24:25.266Z,6.20
2023-01-15T00:27:11.640Z,4.10
2023-01-15T00:29:39.899Z,5.30
2023-01-15T00:32:08.917Z,4.90
2023-01-15T00:34:37.571Z,4.60
2023-01-15T00:37:05.706Z,4.40
2023-01-15T00:39:35.476Z,5.50
2023-01-15T00:42:03.540Z,4.30
2023-01-15T00:44:33.789Z,3.00
2023-01-15T00:47:02.197Z,4.50
2023-01-15T00:49:30.540Z,3.00
2023-01-15T00:55:20.545Z,6.10
2023-01-15T00:57:48.620Z,4.50
2023-01-15T01:00:17.105Z,3.70
2023-01-15T01:02:45.114Z,3.10
2023-01-15T01:05:13.310Z,4.10
2023-01-15T01:07:41.261Z,2.50
2023-01-15T01:10:09.540Z,4.60
2023-01-15T01:12:37.739Z,3.20
2023-01-15T01:15:06.145Z,2.40
2023-01-15T01:17:34.004Z,4.40
2023-01-15T01:20:02.060Z,2.30
2023-01-15T01:22:30.341Z,3.40
2023-01-15T01:24:58.178Z,1.70
2023-01-15T01:27:26.277Z,2.10
2023-01-15T01:29:54.228Z,2.20
2023-01-15T01:32:22.079Z,1.50
2023-01-15T01:34:50.249Z,1.50
2023-01-15T01:37:18.414Z,2.40
2023-01-15T01:39:49.503Z,2.30
2023-01-15T01:42:18.178Z,2.10
2023-01-15T01:44:46.326Z,2.30
2023-01-15T01:47:16.442Z,3.00
2023-01-15T01:49:45.942Z,1.50
2023-01-15T01:55:31.187Z,2.50
2023-01-15T01:58:00.911Z,1.80
2023-01-15T02:00:40.134Z,2.70
2023-01-15T02:03:09.210Z,2.60
2023-01-15T02:05:42.684Z,2.10
2023-01-15T02:08:10.877Z,1.90
2023-01-15T02:10:38.997Z,3.00
2023-01-15T02:13:10.550Z,1.60
2023-01-15T02:15:45.442Z,3.10
2023-01-15T02:18:22.531Z,1.90
2023-01-15T02:20:56.970Z,1.70
2023-01-15T02:23:43.965Z,3.30
2023-01-15T02:26:30.924Z,1.80
2023-01-15T02:28:59.792Z,2.60
2023-01-15T02:31:36.675Z,1.40
2023-01-15T02:34:10.939Z,4.10
2023-01-15T02:36:41.540Z,1.30
2023-01-15T02:39:13.554Z,1.60
2023-01-15T02:41:44.302Z,1.80
2023-01-15T02:44:16.732Z,1.40
2023-01-15T02:46:45.674Z,1.50
2023-01-15T02:49:15.325Z,1.20
2023-01-15T02:51:51.250Z,1.20
2023-01-15T02:54:23.932Z,1.50
2023-01-15T02:56:52.713Z,1.70
2023-01-15T02:59:27.468Z,1.10
2023-01-15T03:02:00.671Z,2.60
2023-01-15T03:04:32.732Z,1.50
2023-01-15T03:07:05.754Z,2.00
2023-01-15T03:09:34.760Z,1.70
2023-01-15T03:12:08.877Z,1.70
2023-01-15T03:14:43.343Z,2.50
2023-01-15T03:17:18.266Z,1.90
2023-01-15T03:19:53.581Z,3.40
2023-01-15T03:22:26.067Z,1.90
2023-01-15T03:25:06.840Z,2.40
2023-01-15T03:27:40.433Z,3.30
2023-01-15T03:30:17.837Z,2.30
2023-01-15T03:32:46.199Z,2.00
2023-01-15T03:35:33.110Z,2.40
2023-01-15T03:38:01.456Z,1.70
2023-01-15T03:40:29.806Z,2.10
2023-01-15T03:43:20.070Z,1.60
2023-01-15T03:45:53.316Z,1.70
2023-01-15T03:48:26.651Z,1.90
2023-01-15T03:51:04.090Z,1.90
2023-01-15T03:53:37.982Z,2.80
2023-01-15T03:56:05.960Z,2.80
2023-01-15T03:58:42.697Z,1.70
2023-01-15T04:01:13.248Z,1.60
2023-01-15T04:03:42.978Z,1.80
2023-01-15T04:06:11.325Z,2.60
2023-01-15T04:08:40.999Z,1.60
2023-01-15T04:11:09.559Z,3.20
2023-01-15T04:13:45.724Z,2.80
2023-01-15T04:16:31.277Z,1.60
2023-01-15T04:18:59.901Z,1.50
2023-01-15T04:21:29.023Z,2.10
2023-01-15T04:23:57.108Z,1.60
2023-01-15T04:26:25.288Z,2.30
2023-01-15T04:28:53.257Z,1.70
2023-01-15T04:31:21.458Z,1.50
2023-01-15T04:33:49.523Z,1.30
2023-01-15T04:36:24.949Z,1.20
2023-01-15T04:38:54.745Z,1.60
2023-01-15T04:41:44.280Z,2.90
2023-01-15T04:44:12.242Z,1.70
2023-01-15T04:46:44.780Z,1.40
2023-01-15T04:49:17.154Z,2.20
2023-01-15T04:51:45.808Z,1.20
2023-01-15T04:54:15.400Z,1.80
2023-01-15T04:56:44.729Z,1.20
2023-01-15T04:59:13.763Z,1.30
2023-01-15T05:01:51.328Z,1.40
2023-01-15T05:04:26.283Z,1.40
2023-01-15T05:06:57.432Z,1.50
2023-01-15T05:09:25.616Z,1.20
2023-01-15T05:11:53.797Z,1.30
2023-01-15T05:14:21.854Z,1.20
2023-01-15T05:16:50.221Z,1.30
2023-01-15T05:19:18.381Z,1.00
2023-01-15T05:21:46.750Z,0.80
2023-01-15T05:24:15.745Z,1.80
2023-01-15T05:26:44.164Z,1.70
2023-01-15T05:29:12.629Z,1.60
2023-01-15T05:31:42.664Z,1.00
2023-01-15T05:34:10.997Z,4.00
2023-01-15T05:36:42.461Z,1.00
2023-01-15T05:39:10.685Z,1.50
2023-01-15T05:41:51.138Z,1.10
2023-01-15T05:44:23.680Z,2.70
2023-01-15T05:46:52.616Z,3.60
2023-01-15T05:49:21.974Z,1.20
2023-01-15T05:51:50.653Z,1.30
2023-01-15T05:54:26.538Z,1.10
2023-01-15T05:56:55.246Z,0.90
2023-01-15T05:59:24.842Z,1.40
2023-01-15T06:01:56.338Z,0.90
2023-01-15T06:04:25.448Z,1.70
2023-01-15T06:06:54.897Z,1.60
2023-01-15T06:09:27.888Z,1.20
2023-01-15T06:11:56.511Z,1.30
2023-01-15T06:14:24.850Z,1.90
2023-01-15T06:16:53.059Z,0.90
2023-01-15T06:19:21.067Z,1.70
2023-01-15T06:21:49.295Z,1.40
2023-01-15T06:24:18.088Z,3.70
2023-01-15T06:26:46.402Z,2.90
2023-01-15T06:29:17.740Z,2.10
2023-01-15T06:31:46.180Z,3.40
2023-01-15T06:34:14.160Z,2.30
2023-01-15T06:36:41.922Z,2.00
2023-01-15T06:39:09.830Z,2.80
2023-01-15T06:41:56.711Z,1.50
2023-01-15T06:44:43.097Z,1.60
2023-01-15T06:47:21.620Z,1.30
2023-01-15T06:49:54.858Z,1.50
2023-01-15T06:52:23.626Z,1.00
2023-01-15T06:54:51.913Z,1.20
2023-01-15T06:57:20.144Z,1.40
2023-01-15T06:59:48.751Z,1.00
2023-01-15T07:02:18.375Z,1.50
2023-01-15T07:04:46.942Z,1.50
2023-01-15T07:07:15.535Z,2.50
2023-01-15T07:09:43.555Z,0.80
2023-01-15T07:12:11.471Z,2.30
2023-01-15T07:14:39.501Z,6.70
2023-01-15T07:17:07.544Z,6.70
2023-01-15T07:19:35.671Z,9.20
2023-01-15T07:22:03.638Z,5.20
2023-01-15T07:24:31.616Z,3.20
2023-01-15T07:26:59.553Z,3.20
2023-01-15T07:29:27.409Z,1.90
2023-01-15T07:31:56.108Z,1.30
2023-01-15T07:34:24.077Z,5.70
2023-01-15T07:37:01.008Z,7.40
2023-01-15T07:39:29.391Z,3.50
2023-01-15T07:42:16.124Z,6.00
2023-01-15T07:45:04.398Z,2.90
2023-01-15T07:47:51.223Z,4.90
2023-01-15T07:50:20.729Z,6.30
2023-01-15T07:52:48.784Z,4.10
2023-01-15T07:55:16.767Z,2.30
2023-01-15T07:57:44.873Z,2.90
2023-01-15T08:00:14.899Z,3.40
2023-01-15T08:02:44.452Z,5.80
2023-01-15T08:05:13.051Z,7.70
2023-01-15T08:07:41.717Z,6.60
2023-01-15T08:10:10.776Z,9.20
2023-01-15T08:12:57.736Z,10.50
2023-01-15T08:15:26.574Z,8.60
2023-01-15T08:17:54.555Z,7.20
2023-01-15T08:20:23.897Z,5.20
2023-01-15T08:22:52.072Z,8.00
2023-01-15T08:25:21.391Z,9.20
2023-01-15T08:27:49.478Z,8.50
2023-01-15T08:30:18.864Z,6.10
2023-01-15T08:32:46.926Z,8.80
2023-01-15T08:35:14.929Z,9.00
2023-01-15T08:37:43.016Z,7.00
2023-01-15T08:40:12.160Z,5.00
2023-01-15T08:42:47.688Z,8.50
2023-01-15T08:45:16.796Z,7.10
2023-01-15T08:47:45.105Z,5.00
2023-01-15T08:50:13.104Z,6.80
2023-01-15T08:55:58.684Z,8.50
2023-01-15T08:58:31.302Z,4.70
2023-01-15T09:01:11.091Z,9.80
2023-01-15T09:03:59.725Z,6.20
2023-01-15T09:06:28.371Z,3.80
2023-01-15T09:09:04.199Z,5.70
2023-01-15T09:11:33.193Z,7.10
2023-01-15T09:14:08.241Z,4.60
2023-01-15T09:17:19.070Z,4.30
2023-01-15T09:19:56.819Z,7.40
2023-01-15T09:22:43.481Z,4.00
2023-01-15T09:25:31.641Z,5.70
2023-01-15T09:27:59.771Z,5.90
2023-01-15T09:30:31.265Z,5.10
2023-01-15T09:33:14.431Z,6.00
2023-01-15T09:35:48.347Z,11.90
2023-01-15T09:38:20.563Z,4.00
2023-01-15T09:40:49.395Z,9.60
2023-01-15T09:43:38.844Z,5.60
2023-01-15T09:46:37.081Z,7.80
2023-01-15T09:49:26.097Z,4.40
2023-01-15T09:52:21.380Z,6.70
2023-01-15T09:55:18.070Z,6.70
2023-01-15T09:57:50.088Z,6.80
2023-01-15T10:00:22.519Z,6.60
2023-01-15T10:03:13.626Z,6.80
2023-01-15T10:05:44.570Z,12.30
2023-01-15T10:08:15.730Z,13.30
2023-01-15T10:13:22.299Z,8.60
2023-01-15T10:15:50.939Z,17.90
2023-01-15T10:18:36.265Z,11.20
2023-01-15T10:23:37.001Z,16.10
2023-01-15T10:26:18.796Z,16.80
2023-01-15T10:28:49.776Z,12.90
2023-01-15T10:31:22.254Z,10.30
2023-01-15T10:34:20.097Z,9.30
2023-01-15T10:37:28.568Z,8.00
2023-01-15T10:40:11.968Z,12.50
2023-01-15T10:42:48.438Z,12.70
2023-01-15T10:45:21.904Z,8.60
2023-01-15T10:47:54.219Z,13.60
2023-01-15T10:50:38.855Z,16.60
2023-01-15T10:53:25.514Z,8.70
2023-01-15T10:55:55.725Z,11.10
2023-01-15T10:58:35.784Z,8.20
2023-01-15T11:01:12.486Z,15.10
2023-01-15T11:03:49.618Z,10.20
2023-01-15T11:06:19.586Z,11.20
2023-01-15T11:09:11.518Z,11.00
2023-01-15T11:12:01.444Z,9.20
2023-01-15T11:14:58.317Z,9.90
2023-01-15T11:17:54.806Z,9.10
2023-01-15T11:20:29.498Z,10.80
2023-01-15T11:22:58.338Z,9.50
2023-01-15T11:25:30.696Z,6.90
2023-01-15T11:28:00.124Z,6.80
2023-01-15T11:30:37.733Z,8.10
2023-01-15T11:33:07.196Z,8.90
2023-01-15T11:35:46.778Z,19.10
2023-01-15T11:38:14.911Z,11.20
2023-01-15T11:40:59.196Z,12.10
2023-01-15T11:43:47.715Z,10.00
2023-01-15T11:46:48.405Z,26.40
2023-01-15T11:49:36.086Z,37.10
2023-01-15T11:52:06.742Z,12.90
2023-01-15T11:54:37.764Z,12.50
2023-01-15T11:57:07.021Z,11.70
2023-01-15T11:59:37.123Z,23.70
2023-01-15T12:02:25.471Z,16.20
2023-01-15T12:04:58.258Z,2.80
2023-01-15T12:07:27.005Z,1.60
2023-01-15T12:10:03.965Z,2.60
2023-01-15T12:12:37.948Z,4.10
2023-01-15T12:15:16.553Z,2.40
2023-01-15T12:18:03.349Z,6.70
2023-01-15T12:21:04.725Z,6.70
2023-01-15T12:23:36.317Z,4.50
2023-01-15T12:26:17.602Z,7.20
2023-01-15T12:31:19.017Z,5.40
2023-01-15T12:33:52.702Z,4.60
2023-01-15T12:36:23.400Z,2.80
2023-01-15T12:38:59.014Z,3.90
2023-01-15T12:41:47.285Z,31.70
2023-01-15T12:44:36.970Z,7.40
2023-01-15T12:47:09.674Z,18.40
2023-01-15T12:49:44.926Z,7.00
2023-01-15T12:52:16.157Z,48.90
2023-01-15T12:55:07.116Z,9.10
2023-01-15T12:57:42.925Z,14.40
2023-01-15T13:00:24.532Z,8.70
2023-01-15T13:02:52.396Z,65.90
2023-01-15T13:05:22.521Z,27.30
2023-01-15T13:08:10.735Z,25.20
2023-01-15T13:10:40.129Z,92.70
2023-01-15T13:13:25.612Z,21.70
2023-01-15T13:15:56.205Z,31.90
2023-01-15T13:18:33.569Z,28.80
2023-01-15T13:21:05.394Z,40.80
2023-01-15T13:23:52.018Z,26.50
2023-01-15T13:26:19.861Z,29.20
2023-01-15T13:29:04.730Z,25.40
2023-01-15T13:31:49.522Z,26.60
2023-01-15T13:34:27.386Z,63.40
2023-01-15T13:36:59.139Z,37.10
2023-01-15T13:39:36.133Z,24.80
2023-01-15T13:42:23.051Z,31.20
2023-01-15T13:44:52.259Z,36.10
2023-01-15T13:47:24.056Z,48.30
2023-01-15T13:49:59.890Z,36.90
2023-01-15T13:52:30.086Z,46.10
2023-01-15T13:55:13.623Z,123.90
2023-01-15T13:57:42.742Z,240.80
2023-01-15T14:00:26.299Z,112.50
2023-01-15T14:02:55.434Z,32.20
2023-01-15T14:05:26.991Z,23.40
2023-01-15T14:07:55.500Z,446.00
2023-01-15T14:10:34.810Z,410.90
2023-01-15T14:13:02.840Z,324.40
2023-01-15T14:15:49.536Z,97.80
2023-01-15T14:18:34.239Z,115.20
2023-01-15T14:21:24.991Z,97.80
2023-01-15T14:24:13.763Z,28.90
2023-01-15T14:26:41.874Z,45.60
2023-01-15T14:29:30.622Z,277.70
2023-01-15T14:32:11.938Z,33.80
2023-01-15T14:34:40.910Z,24.80
2023-01-15T14:37:17.817Z,14.30
2023-01-15T14:39:52.193Z,21.80
2023-01-15T14:42:42.360Z,14.30
2023-01-15T14:45:13.130Z,20.30
2023-01-15T14:47:45.902Z,29.00
2023-01-15T14:50:26.270Z,16.40
2023-01-15T14:52:56.389Z,17.00
2023-01-15T14:55:24.969Z,14.60
2023-01-15T14:57:58.180Z,16.80
2023-01-15T15:00:29.508Z,23.70
2023-01-15T15:03:00.155Z,89.80
2023-01-15T15:05:29.911Z,57.20
2023-01-15T15:07:58.132Z,59.80
2023-01-15T15:10:31.519Z,70.80
2023-01-15T15:13:05.085Z,78.90
2023-01-15T15:15:39.399Z,89.40
2023-01-15T15:18:08.242Z,60.60
2023-01-15T15:20:42.255Z,226.90
2023-01-15T15:23:20.459Z,116.80
2023-01-15T15:25:57.636Z,53.40
2023-01-15T15:28:26.133Z,19.50
2023-01-15T15:30:55.261Z,44.00
2023-01-15T15:33:25.275Z,29.90
2023-01-15T15:35:57.489Z,25.40
2023-01-15T15:38:26.089Z,43.20
2023-01-15T15:40:57.138Z,13.90
2023-01-15T15:43:50.277Z,41.40
2023-01-15T15:46:47.497Z,40.80
2023-01-15T15:49:16.023Z,27.30
2023-01-15T15:51:51.032Z,6.30
2023-01-15T15:54:23.509Z,13.40
2023-01-15T15:56:57.467Z,82.30
2023-01-15T15:59:28.483Z,24.40
2023-01-15T16:04:24.605Z,32.00
2023-01-15T16:06:52.701Z,39.20
2023-01-15T16:09:24.252Z,32.00
2023-01-15T16:11:53.340Z,23.30
2023-01-15T16:14:21.913Z,25.40
2023-01-15T16:16:50.570Z,18.20
2023-01-15T16:19:21.473Z,19.50
2023-01-15T16:21:50.180Z,27.70
2023-01-15T16:24:24.126Z,22.80
2023-01-15T16:27:05.568Z,18.40
2023-01-15T16:29:35.152Z,33.20
2023-01-15T16:32:13.456Z,15.00
2023-01-15T16:34:41.987Z,18.10
2023-01-15T16:37:27.303Z,14.00
2023-01-15T16:39:55.369Z,23.40
2023-01-15T16:42:44.029Z,12.90
2023-01-15T16:45:23.713Z,31.30
2023-01-15T16:48:02.925Z,39.60
2023-01-15T16:50:32.508Z,37.00
2023-01-15T16:53:02.232Z,21.50
2023-01-15T16:55:54.786Z,23.40
2023-01-15T16:58:32.956Z,21.30
2023-01-15T17:01:02.305Z,10.10
2023-01-15T17:03:31.894Z,29.40
2023-01-15T17:06:04.661Z,16.20
2023-01-15T17:08:39.877Z,19.70
2023-01-15T17:11:17.833Z,11.80
2023-01-15T17:13:45.710Z,14.50
2023-01-15T17:16:13.925Z,14.70
2023-01-15T17:18:41.913Z,20.00
2023-01-15T17:21:29.382Z,19.70
2023-01-15T17:23:59.930Z,20.10
2023-01-15T17:26:28.916Z,24.30
2023-01-15T17:28:56.847Z,30.70
2023-01-15T17:31:30.079Z,18.60
2023-01-15T17:33:59.108Z,17.40
2023-01-15T17:36:28.129Z,18.40
2023-01-15T17:38:56.620Z,16.50
2023-01-15T17:41:24.710Z,16.40
2023-01-15T17:43:52.678Z,13.10
2023-01-15T17:46:20.678Z,11.60
2023-01-15T17:48:48.792Z,14.30
2023-01-15T17:51:17.106Z,22.30
2023-01-15T17:53:45.031Z,39.10
2023-01-15T17:56:31.577Z,38.80
2023-01-15T17:59:18.335Z,18.40
2023-01-15T18:02:05.979Z,20.70
2023-01-15T18:05:24.162Z,18.00
2023-01-15T18:07:53.256Z,18.40
2023-01-15T18:10:21.581Z,12.20
2023-01-15T18:12:49.934Z,8.00
2023-01-15T18:15:18.035Z,39.10
2023-01-15T18:17:46.177Z,15.40
2023-01-15T18:20:14.296Z,14.10
2023-01-15T18:22:42.252Z,16.80
2023-01-15T18:25:13.050Z,17.00
2023-01-15T18:27:44.061Z,16.50
2023-01-15T18:30:13.044Z,16.20
2023-01-15T18:32:41.808Z,23.90
2023-01-15T18:35:09.863Z,16.00
2023-01-15T18:37:38.175Z,36.50
2023-01-15T18:40:09.921Z,23.40
2023-01-15T18:42:57.534Z,16.50
2023-01-15T18:45:44.975Z,16.70
2023-01-15T18:48:13.023Z,13.90
2023-01-15T18:50:41.092Z,21.10
2023-01-15T18:53:09.056Z,49.70
2023-01-15T18:55:37.099Z,25.70
2023-01-15T18:58:05.167Z,20.00
2023-01-15T19:00:33.349Z,29.90
2023-01-15T19:03:01.380Z,18.00
2023-01-15T19:05:29.779Z,20.60
2023-01-15T19:07:57.811Z,13.50
2023-01-15T19:10:25.883Z,13.90
2023-01-15T19:12:53.727Z,20.90
2023-01-15T19:15:40.487Z,24.90
2023-01-15T19:18:28.632Z,28.00
2023-01-15T19:20:56.682Z,23.10
2023-01-15T19:23:24.787Z,11.00
2023-01-15T19:25:52.818Z,15.30
2023-01-15T19:28:21.831Z,8.80
2023-01-15T19:31:09.097Z,17.80
2023-01-15T19:33:37.271Z,16.60
2023-01-15T19:36:05.528Z,16.20
2023-01-15T19:38:37.173Z,14.60
2023-01-15T19:41:27.677Z,9.30
2023-01-15T19:44:14.551Z,25.20
2023-01-15T19:47:01.506Z,26.50
2023-01-15T19:49:50.701Z,20.40
2023-01-15T19:52:34.618Z,18.80
2023-01-15T19:55:03.341Z,13.60
2023-01-15T19:57:31.352Z,23.40
2023-01-15T19:59:59.879Z,27.30
2023-01-15T20:02:28.104Z,26.30
2023-01-15T20:04:56.919Z,8.80
2023-01-15T20:07:24.944Z,46.50
2023-01-15T20:09:53.229Z,35.00
2023-01-15T20:12:42.600Z,19.70
2023-01-15T20:15:11.121Z,24.10
2023-01-15T20:17:41.327Z,21.20
2023-01-15T20:20:09.931Z,74.30
2023-01-15T20:22:37.966Z,81.30
2023-01-15T20:25:06.336Z,50.30
2023-01-15T20:27:36.828Z,22.30
2023-01-15T20:30:08.542Z,29.90
2023-01-15T20:32:40.821Z,72.20
2023-01-15T20:35:10.648Z,43.60
2023-01-15T20:37:38.795Z,34.20
2023-01-15T20:40:07.524Z,20.70
2023-01-15T20:42:54.725Z,28.80
2023-01-15T20:45:22.690Z,27.60
2023-01-15T20:48:09.141Z,22.70
2023-01-15T20:50:38.025Z,20.80
2023-01-15T20:53:07.942Z,26.90
2023-01-15T20:55:53.810Z,27.90
2023-01-15T20:58:24.340Z,25.00
2023-01-15T21:00:53.396Z,26.70
2023-01-15T21:03:21.558Z,24.80
2023-01-15T21:05:50.171Z,33.60
2023-01-15T21:08:21.076Z,22.90
2023-01-15T21:10:52.307Z,19.60
2023-01-15T21:13:22.913Z,28.60
2023-01-15T21:15:55.638Z,18.90
2023-01-15T21:18:24.309Z,20.40
2023-01-15T21:20:52.713Z,55.60
2023-01-15T21:23:21.018Z,20.00
2023-01-15T21:25:49.158Z,9.30
2023-01-15T21:28:17.305Z,10.90
2023-01-15T21:30:45.336Z,6.80
2023-01-15T21:33:13.963Z,10.30
2023-01-15T21:35:42.179Z,6.80
2023-01-15T21:38:10.589Z,12.40
2023-01-15T21:40:38.945Z,8.80
2023-01-15T21:43:27.860Z,9.40
2023-01-15T21:46:03.190Z,29.80
2023-01-15T21:48:31.478Z,9.80
2023-01-15T21:51:03.179Z,8.80
2023-01-15T21:53:31.765Z,18.60
2023-01-15T21:55:59.825Z,9.50
2023-01-15T21:58:27.799Z,10.70
2023-01-15T22:00:57.394Z,7.50
2023-01-15T22:03:25.449Z,6.20
2023-01-15T22:05:53.328Z,5.00
2023-01-15T22:08:21.393Z,5.70
2023-01-15T22:10:50.061Z,7.40
2023-01-15T22:13:18.411Z,6.30
2023-01-15T22:15:53.001Z,5.30
2023-01-15T22:18:24.188Z,5.40
2023-01-15T22:21:02.451Z,6.30
2023-01-15T22:23:30.699Z,5.00
2023-01-15T22:25:58.851Z,5.40
2023-01-15T22:28:26.938Z,5.30
2023-01-15T22:30:54.834Z,7.00
2023-01-15T22:33:22.806Z,5.80
2023-01-15T22:35:59.874Z,11.60
2023-01-15T22:38:29.155Z,11.40
2023-01-15T22:40:59.891Z,5.30
2023-01-15T22:43:31.661Z,4.60
2023-01-15T22:46:12.842Z,5.00
2023-01-15T22:51:08.834Z,5.80
2023-01-15T22:53:36.767Z,7.20
2023-01-15T22:56:05.106Z,4.00
2023-01-15T22:58:33.301Z,4.40
2023-01-15T23:01:01.810Z,8.90
2023-01-15T23:03:33.979Z,5.10
2023-01-15T23:06:06.136Z,6.00
2023-01-15T23:08:35.671Z,6.00
2023-01-15T23:11:08.545Z,4.80
2023-01-15T23:13:36.845Z,6.80
2023-01-15T23:16:05.008Z,5.80
2023-01-15T23:18:34.665Z,4.80
2023-01-15T23:21:03.715Z,2.70
2023-01-15T23:23:31.928Z,3.90
2023-01-15T23:26:04.302Z,3.80
2023-01-15T23:28:32.573Z,4.90
2023-01-15T23:31:00.839Z,3.80
2023-01-15T23:33:29.183Z,5.10
2023-01-15T23:35:58.725Z,4.90
2023-01-15T23:38:27.310Z,4.40
2023-01-15T23:40:56.290Z,5.30
2023-01-15T23:43:43.146Z,4.90
2023-01-15T23:46:32.898Z,3.00
2023-01-15T23:49:05.781Z,2.60
2023-01-15T23:51:34.195Z,3.90
2023-01-15T23:54:03.564Z,4.10
2023-01-15T23:56:32.782Z,2.70
2023-01-15T23:59:03.594Z,3.20
